www.cux-wetter.de
Wetterdaten: Dienstag, 11.11.2014
Datum Zeit Temp. A. Feuchte A. Luftdruck Regen Wind Richtung Richtung Sonnenschein Solar Taupunkt Windchill Windben
11.11.2014 00:00 7,6 C 88 % 1009,5 hPa 0,0 l/m 7,6 km/h (2 Bft) S-SO 155 0 min 0 W/m 5,7 C 6,6 C 7,6 km/h (2 Bft)
11.11.2014 00:15 7,6 C 89 % 1009,5 hPa 0,0 l/m 9,2 km/h (2 Bft) S 175 0 min 0 W/m 5,9 C 5,5 C 9,2 km/h (2 Bft)
11.11.2014 00:30 7,5 C 89 % 1009,5 hPa 0,0 l/m 7,0 km/h (2 Bft) S 180 0 min 0 W/m 5,8 C 7,0 C 7,0 km/h (2 Bft)
11.11.2014 00:45 7,5 C 89 % 1009,5 hPa 0,0 l/m 6,8 km/h (2 Bft) S 185 0 min 0 W/m 5,8 C 7,2 C 6,8 km/h (2 Bft)
11.11.2014 01:00 7,4 C 89 % 1009,5 hPa 0,0 l/m 7,9 km/h (2 Bft) S 180 0 min 0 W/m 5,7 C 6,2 C 7,9 km/h (2 Bft)
11.11.2014 01:15 7,2 C 89 % 1009,5 hPa 0,0 l/m 8,3 km/h (2 Bft) S 175 0 min 0 W/m 5,5 C 5,7 C 8,3 km/h (2 Bft)
11.11.2014 01:30 7,2 C 89 % 1009,5 hPa 0,0 l/m 10,7 km/h (2 Bft) S-SO 165 0 min 0 W/m 5,5 C 4,1 C 10,7 km/h (2 Bft)
11.11.2014 01:45 7,2 C 89 % 1009,5 hPa 0,0 l/m 6,8 km/h (2 Bft) S 170 0 min 0 W/m 5,5 C 6,9 C 6,8 km/h (2 Bft)
11.11.2014 02:00 7,2 C 89 % 1009,5 hPa 0,0 l/m 8,0 km/h (2 Bft) S-SW 195 0 min 0 W/m 5,5 C 5,9 C 8,0 km/h (2 Bft)
11.11.2014 02:15 7,2 C 89 % 1009,5 hPa 0,0 l/m 8,9 km/h (2 Bft) S 180 0 min 0 W/m 5,5 C 5,2 C 8,9 km/h (2 Bft)
11.11.2014 02:30 6,9 C 89 % 1009,5 hPa 0,0 l/m 10,7 km/h (2 Bft) S 185 0 min 0 W/m 5,2 C 3,7 C 10,7 km/h (2 Bft)
11.11.2014 02:45 6,9 C 89 % 1009,5 hPa 0,0 l/m 8,4 km/h (2 Bft) S 175 0 min 0 W/m 5,2 C 5,3 C 8,4 km/h (2 Bft)
11.11.2014 03:00 6,8 C 89 % 1009,5 hPa 0,0 l/m 11,3 km/h (2 Bft) S 175 0 min 0 W/m 5,1 C 3,2 C 11,3 km/h (2 Bft)
11.11.2014 03:15 6,7 C 89 % 1009,5 hPa 0,0 l/m 8,4 km/h (2 Bft) S-SO 165 0 min 0 W/m 5,0 C 5,1 C 8,4 km/h (2 Bft)
11.11.2014 03:30 6,7 C 89 % 1009,5 hPa 0,0 l/m 8,7 km/h (2 Bft) S 185 0 min 0 W/m 5,0 C 4,9 C 8,7 km/h (2 Bft)
11.11.2014 03:45 6,7 C 89 % 1009,5 hPa 0,0 l/m 7,4 km/h (2 Bft) S 180 0 min 0 W/m 5,0 C 5,9 C 7,4 km/h (2 Bft)
11.11.2014 04:00 6,6 C 90 % 1009,5 hPa 0,0 l/m 9,8 km/h (2 Bft) S 185 0 min 0 W/m 5,1 C 4,0 C 9,8 km/h (2 Bft)
11.11.2014 04:15 6,5 C 90 % 1009,5 hPa 0,0 l/m 11,0 km/h (2 Bft) S-SW 200 0 min 0 W/m 5,0 C 3,1 C 11,0 km/h (2 Bft)
11.11.2014 04:30 6,4 C 90 % 1009,5 hPa 0,0 l/m 7,2 km/h (2 Bft) S 175 0 min 0 W/m 4,9 C 5,7 C 7,2 km/h (2 Bft)
11.11.2014 04:45 6,4 C 90 % 1009,5 hPa 0,0 l/m 8,5 km/h (2 Bft) S-SW 195 0 min 0 W/m 4,9 C 4,7 C 8,5 km/h (2 Bft)
11.11.2014 05:00 6,3 C 90 % 1009,5 hPa 0,0 l/m 10,9 km/h (2 Bft) S 185 0 min 0 W/m 4,8 C 2,9 C 10,9 km/h (2 Bft)
11.11.2014 05:15 6,3 C 90 % 1009,5 hPa 0,0 l/m 9,1 km/h (2 Bft) S 185 0 min 0 W/m 4,8 C 4,1 C 9,1 km/h (2 Bft)
11.11.2014 05:30 6,2 C 90 % 1010,5 hPa 0,0 l/m 11,0 km/h (2 Bft) S-SW 195 0 min 0 W/m 4,7 C 2,7 C 11,0 km/h (2 Bft)
11.11.2014 05:45 6,2 C 90 % 1010,5 hPa 0,0 l/m 11,3 km/h (2 Bft) S 180 0 min 0 W/m 4,7 C 2,6 C 11,3 km/h (2 Bft)
11.11.2014 06:00 6,2 C 90 % 1010,5 hPa 0,0 l/m 9,4 km/h (2 Bft) S 190 0 min 0 W/m 4,7 C 3,8 C 9,4 km/h (2 Bft)
11.11.2014 06:15 6,0 C 90 % 1009,5 hPa 0,0 l/m 11,6 km/h (2 Bft) S-SW 195 0 min 0 W/m 4,5 C 2,1 C 11,6 km/h (2 Bft)
11.11.2014 06:30 6,0 C 90 % 1010,5 hPa 0,0 l/m 11,6 km/h (2 Bft) S 180 0 min 0 W/m 4,5 C 2,1 C 11,6 km/h (2 Bft)
11.11.2014 06:44 6,0 C 90 % 1010,5 hPa 0,0 l/m 11,5 km/h (2 Bft) S 185 0 min 0 W/m 4,5 C 2,2 C 11,5 km/h (2 Bft)
11.11.2014 07:00 6,0 C 90 % 1010,5 hPa 0,0 l/m 11,0 km/h (2 Bft) S 180 0 min 0 W/m 4,5 C 2,5 C 11,0 km/h (2 Bft)
11.11.2014 07:15 6,0 C 90 % 1010,5 hPa 0,0 l/m 9,4 km/h (2 Bft) S 190 0 min 0 W/m 4,5 C 3,6 C 9,4 km/h (2 Bft)
11.11.2014 07:30 6,0 C 90 % 1010,5 hPa 0,0 l/m 10,4 km/h (2 Bft) S-SW 200 0 min 0 W/m 4,5 C 2,9 C 10,4 km/h (2 Bft)
11.11.2014 07:45 5,9 C 90 % 1010,5 hPa 0,0 l/m 7,4 km/h (2 Bft) S 170 0 min 0 W/m 4,4 C 5,0 C 7,4 km/h (2 Bft)
11.11.2014 08:00 5,8 C 90 % 1010,5 hPa 0,0 l/m 8,9 km/h (2 Bft) S 175 0 min 0 W/m 4,3 C 3,7 C 8,9 km/h (2 Bft)
11.11.2014 08:15 5,8 C 90 % 1010,5 hPa 0,0 l/m 10,1 km/h (2 Bft) S 170 0 min 0 W/m 4,3 C 2,9 C 10,1 km/h (2 Bft)
11.11.2014 08:30 5,8 C 90 % 1010,5 hPa 0,0 l/m 8,1 km/h (2 Bft) S 180 0 min 0 W/m 4,3 C 4,4 C 8,1 km/h (2 Bft)
11.11.2014 08:45 5,8 C 90 % 1010,5 hPa 0,0 l/m 10,7 km/h (2 Bft) S 170 0 min 0 W/m 4,3 C 2,5 C 10,7 km/h (2 Bft)
11.11.2014 09:00 5,8 C 90 % 1010,5 hPa 0,0 l/m 9,9 km/h (2 Bft) S-SO 155 0 min 0 W/m 4,3 C 3,0 C 9,9 km/h (2 Bft)
11.11.2014 09:15 5,8 C 90 % 1010,5 hPa 0,0 l/m 10,5 km/h (2 Bft) S-SO 155 0 min 0 W/m 4,3 C 2,6 C 10,5 km/h (2 Bft)
11.11.2014 09:30 5,8 C 90 % 1010,5 hPa 0,0 l/m 5,7 km/h (2 Bft) S-SO 150 0 min 0 W/m 4,3 C 5,8 C 5,7 km/h (2 Bft)
11.11.2014 09:45 5,9 C 90 % 1010,5 hPa 0,0 l/m 1,2 km/h (1 Bft) S-SO 150 0 min 0 W/m 4,4 C 5,9 C 1,2 km/h (1 Bft)
11.11.2014 10:00 6,2 C 91 % 1010,5 hPa 0,0 l/m 5,7 km/h (2 Bft) SO 135 0 min 0 W/m 4,8 C 6,2 C 5,7 km/h (2 Bft)
11.11.2014 10:15 6,8 C 91 % 1010,5 hPa 0,0 l/m 8,0 km/h (2 Bft) SO 130 0 min 0 W/m 5,4 C 5,5 C 8,0 km/h (2 Bft)
11.11.2014 10:30 7,2 C 91 % 1010,5 hPa 0,0 l/m 8,2 km/h (2 Bft) S 170 0 min 0 W/m 5,8 C 5,8 C 8,2 km/h (2 Bft)
11.11.2014 10:45 7,4 C 92 % 1010,5 hPa 0,0 l/m 12,6 km/h (3 Bft) S 175 0 min 0 W/m 6,2 C 3,2 C 12,6 km/h (3 Bft)
11.11.2014 11:00 7,9 C 92 % 1010,5 hPa 0,0 l/m 11,8 km/h (2 Bft) S 170 0 min 0 W/m 6,7 C 4,2 C 11,8 km/h (2 Bft)
11.11.2014 11:15 8,3 C 92 % 1010,5 hPa 0,0 l/m 8,1 km/h (2 Bft) S-SO 165 0 min 0 W/m 7,1 C 7,0 C 8,1 km/h (2 Bft)
11.11.2014 11:29 8,6 C 92 % 1010,5 hPa 0,0 l/m 17,3 km/h (3 Bft) S 170 0 min 0 W/m 7,4 C 2,5 C 17,3 km/h (3 Bft)
11.11.2014 11:45 9,3 C 91 % 1009,5 hPa 0,0 l/m 11,6 km/h (2 Bft) S 170 0 min 0 W/m 7,9 C 5,9 C 11,6 km/h (2 Bft)
11.11.2014 12:00 9,6 C 91 % 1009,5 hPa 0,0 l/m 11,6 km/h (2 Bft) S 170 0 min 0 W/m 8,2 C 6,3 C 11,6 km/h (2 Bft)
11.11.2014 12:15 10,1 C 90 % 1009,5 hPa 0,0 l/m 10,3 km/h (2 Bft) SO 145 0 min 0 W/m 8,5 C 7,5 C 10,3 km/h (2 Bft)
11.11.2014 12:30 10,4 C 89 % 1009,5 hPa 0,0 l/m 11,1 km/h (2 Bft) SO 130 0 min 0 W/m 8,7 C 7,4 C 11,1 km/h (2 Bft)
11.11.2014 12:45 10,7 C 88 % 1009,5 hPa 0,0 l/m 14,5 km/h (3 Bft) S-SO 150 0 min 0 W/m 8,8 C 6,2 C 14,5 km/h (3 Bft)
11.11.2014 13:00 11,1 C 87 % 1008,5 hPa 0,0 l/m 14,0 km/h (3 Bft) S-SO 150 0 min 0 W/m 9,0 C 6,9 C 14,0 km/h (3 Bft)
11.11.2014 13:15 11,2 C 86 % 1008,5 hPa 0,0 l/m 15,0 km/h (3 Bft) SO 140 0 min 0 W/m 8,9 C 6,6 C 15,0 km/h (3 Bft)
11.11.2014 13:30 11,3 C 86 % 1008,5 hPa 0,0 l/m 13,8 km/h (3 Bft) S-SO 160 0 min 0 W/m 9,0 C 7,2 C 13,8 km/h (3 Bft)
11.11.2014 13:45 11,4 C 84 % 1008,5 hPa 0,0 l/m 15,0 km/h (3 Bft) SO 125 0 min 0 W/m 8,8 C 6,8 C 15,0 km/h (3 Bft)
11.11.2014 14:00 11,2 C 83 % 1008,5 hPa 0,0 l/m 21,5 km/h (4 Bft) S 180 0 min 0 W/m 8,4 C 4,4 C 21,5 km/h (4 Bft)
11.11.2014 14:15 11,2 C 84 % 1008,5 hPa 0,0 l/m 16,6 km/h (3 Bft) S 185 0 min 0 W/m 8,6 C 6,0 C 16,6 km/h (3 Bft)
11.11.2014 14:30 11,0 C 84 % 1008,5 hPa 0,0 l/m 15,3 km/h (3 Bft) S-SO 160 0 min 0 W/m 8,4 C 6,2 C 15,3 km/h (3 Bft)
11.11.2014 14:45 10,7 C 84 % 1008,5 hPa 0,0 l/m 11,8 km/h (2 Bft) S-SO 155 0 min 0 W/m 8,1 C 7,4 C 11,8 km/h (2 Bft)
11.11.2014 15:00 10,4 C 85 % 1008,5 hPa 0,0 l/m 16,6 km/h (3 Bft) S 170 0 min 0 W/m 8,0 C 5,0 C 16,6 km/h (3 Bft)
11.11.2014 15:14 10,4 C 86 % 1008,5 hPa 0,0 l/m 14,0 km/h (3 Bft) S-SO 155 0 min 0 W/m 8,2 C 6,0 C 14,0 km/h (3 Bft)
11.11.2014 15:30 10,3 C 86 % 1007,5 hPa 0,0 l/m 12,8 km/h (3 Bft) SO 140 0 min 0 W/m 8,1 C 6,5 C 12,8 km/h (3 Bft)
11.11.2014 15:45 10,3 C 87 % 1007,5 hPa 0,0 l/m 15,6 km/h (3 Bft) SO 135 0 min 0 W/m 8,2 C 5,3 C 15,6 km/h (3 Bft)
11.11.2014 16:00 10,2 C 87 % 1007,5 hPa 0,0 l/m 17,8 km/h (3 Bft) S-SO 160 0 min 0 W/m 8,1 C 4,3 C 17,8 km/h (3 Bft)
11.11.2014 16:15 10,3 C 87 % 1007,5 hPa 0,0 l/m 15,2 km/h (3 Bft) S-SO 150 0 min 0 W/m 8,2 C 5,4 C 15,2 km/h (3 Bft)
11.11.2014 16:30 10,2 C 87 % 1007,5 hPa 0,0 l/m 18,1 km/h (3 Bft) S-SO 165 0 min 0 W/m 8,1 C 4,2 C 18,1 km/h (3 Bft)
11.11.2014 16:45 10,2 C 88 % 1007,5 hPa 0,0 l/m 17,2 km/h (3 Bft) S 180 0 min 0 W/m 8,3 C 4,5 C 17,2 km/h (3 Bft)
11.11.2014 17:00 10,2 C 88 % 1007,5 hPa 0,0 l/m 15,4 km/h (3 Bft) SO 145 0 min 0 W/m 8,3 C 5,2 C 15,4 km/h (3 Bft)
11.11.2014 17:15 10,2 C 88 % 1006,5 hPa 0,0 l/m 19,1 km/h (3 Bft) S-SO 160 0 min 0 W/m 8,3 C 3,8 C 19,1 km/h (3 Bft)
11.11.2014 17:30 10,2 C 88 % 1006,5 hPa 0,0 l/m 21,0 km/h (4 Bft) S 180 0 min 0 W/m 8,3 C 3,2 C 21,0 km/h (4 Bft)
11.11.2014 17:45 10,2 C 88 % 1006,5 hPa 0,0 l/m 27,3 km/h (5 Bft) S 170 0 min 0 W/m 8,3 C 1,5 C 27,3 km/h (5 Bft)
11.11.2014 18:00 10,2 C 88 % 1006,5 hPa 0,0 l/m 20,0 km/h (4 Bft) S-SO 155 0 min 0 W/m 8,3 C 3,5 C 20,0 km/h (4 Bft)
11.11.2014 18:15 10,1 C 88 % 1006,5 hPa 0,0 l/m 23,3 km/h (4 Bft) SO 140 0 min 0 W/m 8,2 C 2,4 C 23,3 km/h (4 Bft)
11.11.2014 18:30 10,0 C 88 % 1006,5 hPa 0,0 l/m 23,5 km/h (4 Bft) S 170 0 min 0 W/m 8,1 C 2,2 C 23,5 km/h (4 Bft)
11.11.2014 18:45 10,0 C 88 % 1006,5 hPa 0,0 l/m 21,4 km/h (4 Bft) S-SO 160 0 min 0 W/m 8,1 C 2,8 C 21,4 km/h (4 Bft)
11.11.2014 19:00 9,8 C 88 % 1006,5 hPa 0,0 l/m 18,1 km/h (3 Bft) S-SO 150 0 min 0 W/m 7,9 C 3,7 C 18,1 km/h (3 Bft)
11.11.2014 19:15 9,7 C 89 % 1006,5 hPa 0,0 l/m 21,3 km/h (4 Bft) S 175 0 min 0 W/m 8,0 C 2,5 C 21,3 km/h (4 Bft)
11.11.2014 19:30 9,6 C 89 % 1006,5 hPa 0,0 l/m 15,3 km/h (3 Bft) S-SO 165 0 min 0 W/m 7,9 C 4,5 C 15,3 km/h (3 Bft)
11.11.2014 19:45 9,6 C 89 % 1006,5 hPa 0,0 l/m 12,8 km/h (3 Bft) S-SO 155 0 min 0 W/m 7,9 C 5,7 C 12,8 km/h (3 Bft)
11.11.2014 20:00 9,5 C 90 % 1006,5 hPa 0,0 l/m 21,9 km/h (4 Bft) SO 135 0 min 0 W/m 7,9 C 2,0 C 21,9 km/h (4 Bft)
11.11.2014 20:15 9,5 C 90 % 1006,5 hPa 0,0 l/m 25,1 km/h (4 Bft) S 170 0 min 0 W/m 7,9 C 1,1 C 25,1 km/h (4 Bft)
11.11.2014 20:30 9,5 C 91 % 1006,5 hPa 0,0 l/m 21,0 km/h (4 Bft) S-SO 150 0 min 0 W/m 8,1 C 2,3 C 21,0 km/h (4 Bft)
11.11.2014 20:45 9,6 C 91 % 1006,5 hPa 0,0 l/m 28,4 km/h (5 Bft) S-SO 150 0 min 0 W/m 8,2 C 0,5 C 28,4 km/h (5 Bft)
11.11.2014 21:00 9,6 C 91 % 1006,5 hPa 0,0 l/m 23,7 km/h (4 Bft) S-SO 160 0 min 0 W/m 8,2 C 1,6 C 23,7 km/h (4 Bft)
11.11.2014 21:15 9,6 C 91 % 1006,5 hPa 0,0 l/m 32,0 km/h (5 Bft) SO 145 0 min 0 W/m 8,2 C -0,3 C 32,0 km/h (5 Bft)
11.11.2014 21:30 9,7 C 91 % 1006,5 hPa 0,0 l/m 21,6 km/h (4 Bft) S 170 0 min 0 W/m 8,3 C 2,4 C 21,6 km/h (4 Bft)
11.11.2014 21:45 9,7 C 91 % 1006,5 hPa 0,0 l/m 26,3 km/h (4 Bft) S-SO 150 0 min 0 W/m 8,3 C 1,1 C 26,3 km/h (4 Bft)
11.11.2014 22:00 9,7 C 91 % 1006,5 hPa 0,0 l/m 23,8 km/h (4 Bft) S-SO 155 0 min 0 W/m 8,3 C 1,8 C 23,8 km/h (4 Bft)
11.11.2014 22:15 9,7 C 91 % 1005,5 hPa 0,0 l/m 20,2 km/h (4 Bft) SO 140 0 min 0 W/m 8,3 C 2,8 C 20,2 km/h (4 Bft)
11.11.2014 22:30 9,8 C 91 % 1005,5 hPa 0,0 l/m 23,0 km/h (4 Bft) S-SO 155 0 min 0 W/m 8,4 C 2,1 C 23,0 km/h (4 Bft)
11.11.2014 22:45 9,9 C 91 % 1005,5 hPa 0,0 l/m 25,8 km/h (4 Bft) O-SO 120 0 min 0 W/m 8,5 C 1,5 C 25,8 km/h (4 Bft)
11.11.2014 23:00 9,9 C 91 % 1004,5 hPa 0,0 l/m 28,6 km/h (5 Bft) SO 130 0 min 0 W/m 8,5 C 0,8 C 28,6 km/h (5 Bft)
11.11.2014 23:15 9,8 C 91 % 1005,5 hPa 0,0 l/m 23,8 km/h (4 Bft) O-SO 115 0 min 0 W/m 8,4 C 1,9 C 23,8 km/h (4 Bft)
11.11.2014 23:30 9,8 C 91 % 1005,5 hPa 0,0 l/m 27,9 km/h (5 Bft) SO 125 0 min 0 W/m 8,4 C 0,8 C 27,9 km/h (5 Bft)
11.11.2014 23:45 9,7 C 91 % 1005,5 hPa 0,0 l/m 22,4 km/h (4 Bft) SO 130 0 min 0 W/m 8,3 C 2,2 C 22,4 km/h (4 Bft)
_ Min-Zeit 08:00 14:00 23:00 - 09:45 - - - - 08:00 21:15 09:45
Minimum _ 5,8 C 83 % 1004,5 hPa - 1,2 km/h (1 Bft) - - - - 4,3 C -0,3 C 1,2 km/h (1 Bft)
_ Max-Zeit 13:45 10:45 05:30 00:00 21:15 - - 00:00 00:00 13:30 12:15 21:15
Maximum _ 11,4 C 92 % 1010,5 hPa 0,0 l/m 32,0 km/h
SO (5 Bft)
- - 0 min 0 W/m 9,0 C 7,5 C 32,0 km/h
S-SO (5 Bft)
Durchschnitt _ 8,4 C 89 % 1008,6 hPa #0,0 l/m 14,4 km/h (3 Bft) S - #0 min. 0 W/m 6,7 C 4,1 C 14,4 km/h (3 Bft)
copyright by Holger Just